createdAt,value
2022-12-09T00:01:13.207Z,15.90
2022-12-09T00:03:40.783Z,16.03
2022-12-09T00:06:19.205Z,17.27
2022-12-09T00:08:46.847Z,20.90
2022-12-09T00:11:14.329Z,12.50
2022-12-09T00:13:41.348Z,14.97
2022-12-09T00:16:12.174Z,12.77
2022-12-09T00:18:40.621Z,14.87
2022-12-09T00:21:24.194Z,21.17
2022-12-09T00:23:53.647Z,15.97
2022-12-09T00:26:22.841Z,20.10
2022-12-09T00:28:51.143Z,22.70
2022-12-09T00:31:25.553Z,14.90
2022-12-09T00:33:56.010Z,17.53
2022-12-09T00:36:24.206Z,18.20
2022-12-09T00:38:52.068Z,14.13
2022-12-09T00:41:19.350Z,13.03
2022-12-09T00:43:48.331Z,17.60
2022-12-09T00:46:16.697Z,10.97
2022-12-09T00:48:46.033Z,15.03
2022-12-09T00:51:17.566Z,20.83
2022-12-09T00:53:45.430Z,19.07
2022-12-09T00:56:12.467Z,17.03
2022-12-09T00:58:39.557Z,12.73
2022-12-09T01:01:06.832Z,15.83
2022-12-09T01:03:34.200Z,10.50
2022-12-09T01:06:01.400Z,9.73
2022-12-09T01:08:28.587Z,11.30
2022-12-09T01:10:55.569Z,9.57
2022-12-09T01:13:22.811Z,17.67
2022-12-09T01:15:50.123Z,11.90
2022-12-09T01:18:17.854Z,15.73
2022-12-09T01:20:44.973Z,21.03
2022-12-09T01:23:12.088Z,18.50
2022-12-09T01:25:39.377Z,22.73
2022-12-09T01:28:06.675Z,19.53
2022-12-09T01:30:33.832Z,20.77
2022-12-09T01:33:01.123Z,22.90
2022-12-09T01:35:29.384Z,20.13
2022-12-09T01:37:56.375Z,22.43
2022-12-09T01:40:23.730Z,19.57
2022-12-09T01:42:51.691Z,18.10
2022-12-09T01:45:22.310Z,18.67
2022-12-09T01:47:59.262Z,20.17
2022-12-09T01:50:27.488Z,19.10
2022-12-09T01:52:55.977Z,19.83
2022-12-09T01:55:25.289Z,26.67
2022-12-09T01:57:52.959Z,17.87
2022-12-09T02:00:21.585Z,15.10
2022-12-09T02:02:52.405Z,13.37
2022-12-09T02:05:21.974Z,10.10
2022-12-09T02:07:54.379Z,20.40
2022-12-09T02:10:22.549Z,21.10
2022-12-09T02:13:22.580Z,27.93
2022-12-09T02:16:03.297Z,9.70
2022-12-09T02:19:00.403Z,18.10
2022-12-09T02:21:47.270Z,15.53
2022-12-09T02:24:32.233Z,18.30
2022-12-09T02:27:35.458Z,14.00
2022-12-09T02:30:16.264Z,12.37
2022-12-09T02:33:21.978Z,13.50
2022-12-09T02:35:56.805Z,11.97
2022-12-09T02:38:32.483Z,14.23
2022-12-09T02:41:26.325Z,17.70
2022-12-09T02:44:07.435Z,15.40
2022-12-09T02:46:36.975Z,13.90
2022-12-09T02:49:08.160Z,12.97
2022-12-09T02:51:42.196Z,13.83
2022-12-09T02:54:17.152Z,16.47
2022-12-09T02:56:53.648Z,11.47
2022-12-09T02:59:21.593Z,12.33
2022-12-09T03:01:56.906Z,15.73
2022-12-09T03:04:27.941Z,11.90
2022-12-09T03:07:02.889Z,30.50
2022-12-09T03:09:35.536Z,12.67
2022-12-09T03:12:07.806Z,11.03
2022-12-09T03:14:51.915Z,11.10
2022-12-09T03:17:31.020Z,16.33
2022-12-09T03:20:07.703Z,36.70
2022-12-09T03:22:37.613Z,33.87
2022-12-09T03:25:15.207Z,23.80
2022-12-09T03:27:54.802Z,17.13
2022-12-09T03:30:21.835Z,17.70
2022-12-09T03:32:51.566Z,18.07
2022-12-09T03:35:25.345Z,13.60
2022-12-09T03:37:53.315Z,10.60
2022-12-09T03:40:25.830Z,19.17
2022-12-09T03:43:09.198Z,13.10
2022-12-09T03:45:36.642Z,12.27
2022-12-09T03:48:04.192Z,30.53
2022-12-09T03:51:01.745Z,24.87
2022-12-09T03:54:03.400Z,40.67
2022-12-09T03:56:39.902Z,24.27
2022-12-09T03:59:11.876Z,24.83
2022-12-09T04:01:41.779Z,25.73
2022-12-09T04:04:10.113Z,35.73
2022-12-09T04:06:37.864Z,8.37
2022-12-09T04:09:06.097Z,14.77
2022-12-09T04:11:34.552Z,16.40
2022-12-09T04:14:02.007Z,15.47
2022-12-09T04:16:29.512Z,9.73
2022-12-09T04:18:57.468Z,10.80
2022-12-09T04:21:24.925Z,13.93
2022-12-09T04:23:52.751Z,17.60
2022-12-09T04:26:21.969Z,13.13
2022-12-09T04:28:50.083Z,17.80
2022-12-09T04:31:18.928Z,14.07
2022-12-09T04:33:47.310Z,18.03
2022-12-09T04:36:16.931Z,22.23
2022-12-09T04:38:44.911Z,20.00
2022-12-09T04:41:12.684Z,23.03
2022-12-09T04:43:40.232Z,23.30
2022-12-09T04:46:11.270Z,21.33
2022-12-09T04:48:38.811Z,18.20
2022-12-09T04:51:09.746Z,15.00
2022-12-09T04:53:37.568Z,15.43
2022-12-09T04:56:08.566Z,12.63
2022-12-09T04:58:36.115Z,17.17
2022-12-09T05:01:11.353Z,13.63
2022-12-09T05:03:39.915Z,15.37
2022-12-09T05:06:09.496Z,16.63
2022-12-09T05:08:37.239Z,14.70
2022-12-09T05:11:05.494Z,14.00
2022-12-09T05:13:33.209Z,11.13
2022-12-09T05:16:15.863Z,21.13
2022-12-09T05:18:44.784Z,12.70
2022-12-09T05:21:15.105Z,13.93
2022-12-09T05:23:43.096Z,14.17
2022-12-09T05:26:14.694Z,14.13
2022-12-09T05:28:43.618Z,14.40
2022-12-09T05:31:15.334Z,11.13
2022-12-09T05:33:44.096Z,12.20
2022-12-09T05:36:14.419Z,14.87
2022-12-09T05:38:42.429Z,14.50
2022-12-09T05:41:10.395Z,26.67
2022-12-09T05:43:38.946Z,15.60
2022-12-09T05:46:07.165Z,14.67
2022-12-09T05:48:35.477Z,16.67
2022-12-09T05:51:06.597Z,13.87
2022-12-09T05:53:34.662Z,20.33
2022-12-09T05:56:03.091Z,16.47
2022-12-09T05:58:30.828Z,17.27
2022-12-09T06:01:05.608Z,19.20
2022-12-09T06:03:33.508Z,23.90
2022-12-09T06:06:09.489Z,24.87
2022-12-09T06:08:37.921Z,23.63
2022-12-09T06:11:08.751Z,24.77
2022-12-09T06:13:36.603Z,22.77
2022-12-09T06:16:05.382Z,22.03
2022-12-09T06:18:33.187Z,23.00
2022-12-09T06:21:04.876Z,33.77
2022-12-09T06:23:32.231Z,22.53
2022-12-09T06:25:59.655Z,23.33
2022-12-09T06:28:27.348Z,16.73
2022-12-09T06:30:55.084Z,28.87
2022-12-09T06:33:45.934Z,17.37
2022-12-09T06:36:10.791Z,22.83
2022-12-09T06:38:38.872Z,21.57
2022-12-09T06:41:10.511Z,26.00
2022-12-09T06:43:38.288Z,17.70
2022-12-09T06:46:13.143Z,16.93
2022-12-09T06:48:41.100Z,13.80
2022-12-09T06:51:08.940Z,22.90
2022-12-09T06:53:36.714Z,21.17
2022-12-09T06:56:11.478Z,19.27
2022-12-09T06:58:40.706Z,19.80
2022-12-09T07:01:20.781Z,22.87
2022-12-09T07:03:50.776Z,15.17
2022-12-09T07:06:28.804Z,18.77
2022-12-09T07:08:59.000Z,23.20
2022-12-09T07:11:26.788Z,29.50
2022-12-09T07:13:54.881Z,16.80
2022-12-09T07:16:22.771Z,37.00
2022-12-09T07:18:51.086Z,36.50
2022-12-09T07:21:20.132Z,25.10
2022-12-09T07:23:48.525Z,25.13
2022-12-09T07:26:17.038Z,25.00
2022-12-09T07:28:50.372Z,23.00
2022-12-09T07:31:26.569Z,21.77
2022-12-09T07:33:55.636Z,20.90
2022-12-09T07:36:25.215Z,24.77
2022-12-09T07:38:59.539Z,19.80
2022-12-09T07:41:27.414Z,23.00
2022-12-09T07:43:55.134Z,24.13
2022-12-09T07:46:24.235Z,25.53
2022-12-09T07:48:52.122Z,22.70
2022-12-09T07:51:19.974Z,20.97
2022-12-09T07:53:48.753Z,23.13
2022-12-09T07:56:17.709Z,27.37
2022-12-09T07:58:51.313Z,16.00
2022-12-09T08:01:22.328Z,28.77
2022-12-09T08:03:50.603Z,26.70
2022-12-09T08:06:21.605Z,30.67
2022-12-09T08:08:50.242Z,27.50
2022-12-09T08:11:21.532Z,25.00
2022-12-09T08:13:49.658Z,32.57
2022-12-09T08:16:19.518Z,29.10
2022-12-09T08:18:48.021Z,29.23
2022-12-09T08:21:21.363Z,28.83
2022-12-09T08:23:50.115Z,42.80
2022-12-09T08:26:20.040Z,38.43
2022-12-09T08:28:47.913Z,39.20
2022-12-09T08:31:18.677Z,32.97
2022-12-09T08:33:46.592Z,36.40
2022-12-09T08:36:20.419Z,45.17
2022-12-09T08:38:47.584Z,35.37
2022-12-09T08:41:16.864Z,32.73
2022-12-09T08:43:45.661Z,35.90
2022-12-09T08:46:13.932Z,40.93
2022-12-09T08:48:42.963Z,32.17
2022-12-09T08:51:12.325Z,29.70
2022-12-09T08:53:40.172Z,32.87
2022-12-09T08:56:11.004Z,31.50
2022-12-09T08:58:38.913Z,29.40
2022-12-09T09:01:06.711Z,27.27
2022-12-09T09:03:35.248Z,35.03
2022-12-09T09:06:10.774Z,39.70
2022-12-09T09:08:39.798Z,47.33
2022-12-09T09:11:16.886Z,43.77
2022-12-09T09:13:47.875Z,49.67
2022-12-09T09:16:19.379Z,466.17
2022-12-09T09:18:47.423Z,294.77
2022-12-09T09:21:18.967Z,72.20
2022-12-09T09:23:47.460Z,59.17
2022-12-09T09:26:18.566Z,42.80
2022-12-09T09:28:46.619Z,33.47
2022-12-09T09:31:20.494Z,31.03
2022-12-09T09:33:48.945Z,37.97
2022-12-09T09:36:20.913Z,29.57
2022-12-09T09:38:50.157Z,37.07
2022-12-09T09:41:27.918Z,30.17
2022-12-09T09:43:56.668Z,34.73
2022-12-09T09:46:46.894Z,31.90
2022-12-09T09:49:58.697Z,26.40
2022-12-09T09:52:29.097Z,26.83
2022-12-09T09:54:57.274Z,30.50
2022-12-09T09:57:41.083Z,30.67
2022-12-09T10:00:33.691Z,32.67
2022-12-09T10:03:10.731Z,30.27
2022-12-09T10:05:50.889Z,32.43
2022-12-09T10:08:24.831Z,31.80
2022-12-09T10:10:57.863Z,30.80
2022-12-09T10:13:40.022Z,34.10
2022-12-09T10:16:18.982Z,31.53
2022-12-09T10:19:08.958Z,30.83
2022-12-09T10:21:43.762Z,32.83
2022-12-09T10:24:40.150Z,29.57
2022-12-09T10:27:23.807Z,32.80
2022-12-09T10:30:08.897Z,28.90
2022-12-09T10:32:40.260Z,32.10
2022-12-09T10:35:30.742Z,35.83
2022-12-09T10:38:12.571Z,26.63
2022-12-09T10:40:45.992Z,26.90
2022-12-09T10:43:37.473Z,31.93
2022-12-09T10:46:24.372Z,30.73
2022-12-09T10:48:57.546Z,31.73
2022-12-09T10:51:29.022Z,28.50
2022-12-09T10:54:21.013Z,32.50
2022-12-09T10:57:12.684Z,33.37
2022-12-09T10:59:56.106Z,25.03
2022-12-09T11:02:24.710Z,37.43
2022-12-09T11:04:52.494Z,29.67
2022-12-09T11:07:26.118Z,33.80
2022-12-09T11:09:56.409Z,24.73
2022-12-09T11:12:36.665Z,28.13
2022-12-09T11:15:27.206Z,29.40
2022-12-09T11:18:05.371Z,30.07
2022-12-09T11:20:34.891Z,39.43
2022-12-09T11:23:21.486Z,28.10
2022-12-09T11:26:02.559Z,28.57
2022-12-09T11:28:34.391Z,40.87
2022-12-09T11:31:35.650Z,36.50
2022-12-09T11:34:15.831Z,33.27
2022-12-09T11:36:51.715Z,37.83
2022-12-09T11:39:23.646Z,34.70
2022-12-09T11:42:18.522Z,34.80
2022-12-09T11:44:56.658Z,35.00
2022-12-09T11:50:31.641Z,37.80
2022-12-09T11:53:10.930Z,42.33
2022-12-09T11:55:52.880Z,34.20
2022-12-09T11:59:04.199Z,35.40
2022-12-09T12:02:06.015Z,29.83
2022-12-09T12:05:01.770Z,32.07
2022-12-09T12:08:07.563Z,32.23
2022-12-09T12:10:57.348Z,28.37
2022-12-09T12:13:32.464Z,31.70
2022-12-09T12:16:13.344Z,36.10
2022-12-09T12:18:56.086Z,40.60
2022-12-09T12:21:44.994Z,36.17
2022-12-09T12:24:38.402Z,39.17
2022-12-09T12:27:34.025Z,31.87
2022-12-09T12:30:15.042Z,32.03
2022-12-09T12:36:15.374Z,32.97
2022-12-09T12:39:10.052Z,47.47
2022-12-09T12:42:23.426Z,37.47
2022-12-09T12:45:20.351Z,40.60
2022-12-09T12:47:56.236Z,45.13
2022-12-09T12:51:06.658Z,40.73
2022-12-09T12:53:50.308Z,40.47
2022-12-09T12:56:31.801Z,38.70
2022-12-09T12:59:33.665Z,34.70
2022-12-09T13:02:35.075Z,48.40
2022-12-09T13:05:20.882Z,31.60
2022-12-09T13:08:15.102Z,36.63
2022-12-09T13:10:47.879Z,36.03
2022-12-09T13:13:44.131Z,41.60
2022-12-09T13:16:21.520Z,37.90
2022-12-09T13:18:49.982Z,37.50
2022-12-09T13:21:17.697Z,36.87
2022-12-09T13:24:27.063Z,35.97
2022-12-09T13:26:56.903Z,42.30
2022-12-09T13:29:35.011Z,37.90
2022-12-09T13:32:38.667Z,39.20
2022-12-09T13:35:19.396Z,38.60
2022-12-09T13:37:46.773Z,46.70
2022-12-09T13:40:36.649Z,43.13
2022-12-09T13:43:03.508Z,50.20
2022-12-09T13:45:44.344Z,52.80
2022-12-09T13:48:16.449Z,42.50
2022-12-09T13:50:59.978Z,38.70
2022-12-09T13:53:51.923Z,38.33
2022-12-09T13:56:27.043Z,45.77
2022-12-09T13:59:27.994Z,56.83
2022-12-09T14:02:22.694Z,71.80
2022-12-09T14:05:13.638Z,48.47
2022-12-09T14:07:48.790Z,53.33
2022-12-09T14:10:39.089Z,46.10
2022-12-09T14:13:27.346Z,50.47
2022-12-09T14:16:09.317Z,48.80
2022-12-09T14:18:39.887Z,51.40
2022-12-09T14:21:19.441Z,62.67
2022-12-09T14:24:07.912Z,62.07
2022-12-09T14:26:47.737Z,47.50
2022-12-09T14:29:42.308Z,46.63
2022-12-09T14:32:23.239Z,57.07
2022-12-09T14:35:11.221Z,51.73
2022-12-09T14:38:10.083Z,50.93
2022-12-09T14:40:43.165Z,52.27
2022-12-09T14:43:32.990Z,60.30
2022-12-09T14:46:30.285Z,61.87
2022-12-09T14:49:23.800Z,57.37
2022-12-09T14:52:13.594Z,53.83
2022-12-09T14:54:47.426Z,52.20
2022-12-09T14:57:42.907Z,59.93
2022-12-09T15:00:39.144Z,59.00
2022-12-09T15:03:33.244Z,67.93
2022-12-09T15:06:13.246Z,61.90
2022-12-09T15:08:42.033Z,52.43
2022-12-09T15:11:20.164Z,71.03
2022-12-09T15:13:51.381Z,63.60
2022-12-09T15:16:26.329Z,53.17
2022-12-09T15:18:55.596Z,52.33
2022-12-09T15:21:30.056Z,48.37
2022-12-09T15:23:59.836Z,48.47
2022-12-09T15:26:33.480Z,47.43
2022-12-09T15:29:01.264Z,59.10
2022-12-09T15:31:31.024Z,52.40
2022-12-09T15:34:07.859Z,45.00
2022-12-09T15:36:40.655Z,52.07
2022-12-09T15:39:38.981Z,50.43
2022-12-09T15:42:15.535Z,43.57
2022-12-09T15:45:03.235Z,43.53
2022-12-09T15:48:00.089Z,45.00
2022-12-09T15:50:51.609Z,41.40
2022-12-09T15:53:31.617Z,43.17
2022-12-09T15:56:15.383Z,77.37
2022-12-09T15:58:52.175Z,56.30
2022-12-09T16:01:26.894Z,49.70
2022-12-09T16:03:55.943Z,45.97
2022-12-09T16:06:30.687Z,51.47
2022-12-09T16:08:58.177Z,56.57
2022-12-09T16:11:54.744Z,54.93
2022-12-09T16:14:24.362Z,56.03
2022-12-09T16:17:03.532Z,58.20
2022-12-09T16:19:40.689Z,40.50
2022-12-09T16:22:15.967Z,42.67
2022-12-09T16:25:14.358Z,50.63
2022-12-09T16:27:48.650Z,53.43
2022-12-09T16:30:20.430Z,52.07
2022-12-09T16:32:55.956Z,66.73
2022-12-09T16:35:43.383Z,69.40
2022-12-09T16:38:10.251Z,67.40
2022-12-09T16:41:00.173Z,67.47
2022-12-09T16:43:28.787Z,66.73
2022-12-09T16:46:15.022Z,74.63
2022-12-09T16:48:42.602Z,66.40
2022-12-09T16:51:17.595Z,123.73
2022-12-09T16:53:51.973Z,168.27
2022-12-09T16:56:25.648Z,101.03
2022-12-09T16:58:53.784Z,70.13
2022-12-09T17:01:26.954Z,83.17
2022-12-09T17:04:05.385Z,73.47
2022-12-09T17:06:32.661Z,75.23
2022-12-09T17:08:59.717Z,66.00
2022-12-09T17:11:26.839Z,65.43
2022-12-09T17:13:53.864Z,62.10
2022-12-09T17:16:22.377Z,64.90
2022-12-09T17:18:50.171Z,69.93
2022-12-09T17:21:18.528Z,76.73
2022-12-09T17:23:46.078Z,79.67
2022-12-09T17:26:18.314Z,67.73
2022-12-09T17:28:46.235Z,67.27
2022-12-09T17:31:23.333Z,55.10
2022-12-09T17:33:50.863Z,66.70
2022-12-09T17:36:18.821Z,68.47
2022-12-09T17:38:46.339Z,63.50
2022-12-09T17:41:18.833Z,48.43
2022-12-09T17:43:46.292Z,57.90
2022-12-09T17:46:13.753Z,64.97
2022-12-09T17:48:41.899Z,62.60
2022-12-09T17:51:13.058Z,60.30
2022-12-09T17:53:42.005Z,51.87
2022-12-09T17:56:19.707Z,70.10
2022-12-09T17:58:48.569Z,45.83
2022-12-09T18:01:21.777Z,63.13
2022-12-09T18:03:59.401Z,66.87
2022-12-09T18:06:34.122Z,47.23
2022-12-09T18:09:03.900Z,51.33
2022-12-09T18:11:30.946Z,54.63
2022-12-09T18:13:58.088Z,59.33
2022-12-09T18:16:25.281Z,71.67
2022-12-09T18:18:52.435Z,58.07
2022-12-09T18:21:19.980Z,63.00
2022-12-09T18:23:48.423Z,60.83
2022-12-09T18:26:18.571Z,57.63
2022-12-09T18:28:46.144Z,51.23
2022-12-09T18:31:19.083Z,85.70
2022-12-09T18:33:46.580Z,79.70
2022-12-09T18:36:33.780Z,79.77
2022-12-09T18:39:00.900Z,61.30
2022-12-09T18:41:31.224Z,73.07
2022-12-09T18:44:01.787Z,63.67
2022-12-09T18:46:35.033Z,60.27
2022-12-09T18:49:14.545Z,87.30
2022-12-09T18:51:43.739Z,68.47
2022-12-09T18:54:17.303Z,75.00
2022-12-09T18:56:44.516Z,79.73
2022-12-09T18:59:12.149Z,81.77
2022-12-09T19:01:42.957Z,89.77
2022-12-09T19:04:20.550Z,85.40
2022-12-09T19:06:50.963Z,84.93
2022-12-09T19:09:22.571Z,79.60
2022-12-09T19:11:51.030Z,87.47
2022-12-09T19:14:20.880Z,68.17
2022-12-09T19:16:48.602Z,70.17
2022-12-09T19:19:22.785Z,78.10
2022-12-09T19:21:50.301Z,77.07
2022-12-09T19:24:25.636Z,69.33
2022-12-09T19:26:55.343Z,71.57
2022-12-09T19:29:24.799Z,75.63
2022-12-09T19:31:52.777Z,68.80
2022-12-09T19:34:26.954Z,61.53
2022-12-09T19:36:58.000Z,67.80
2022-12-09T19:39:31.359Z,59.67
2022-12-09T19:41:59.025Z,53.50
2022-12-09T19:44:52.408Z,54.20
2022-12-09T19:47:14.183Z,63.60
2022-12-09T19:49:42.593Z,46.10
2022-12-09T19:52:09.529Z,47.23
2022-12-09T19:54:36.603Z,41.00
2022-12-09T19:57:03.614Z,58.43
2022-12-09T19:59:30.614Z,51.97
2022-12-09T20:01:57.608Z,43.80
2022-12-09T20:04:48.185Z,39.07
2022-12-09T20:07:12.571Z,38.83
2022-12-09T20:09:39.735Z,33.30
2022-12-09T20:12:06.710Z,34.30
2022-12-09T20:14:33.786Z,41.93
2022-12-09T20:17:00.794Z,39.80
2022-12-09T20:19:28.005Z,40.10
2022-12-09T20:21:55.133Z,33.10
2022-12-09T20:24:22.149Z,44.80
2022-12-09T20:26:49.284Z,34.50
2022-12-09T20:29:16.401Z,46.10
2022-12-09T20:31:43.496Z,52.93
2022-12-09T20:34:16.394Z,48.57
2022-12-09T20:36:45.298Z,47.57
2022-12-09T20:39:19.876Z,41.60
2022-12-09T20:41:48.003Z,35.47
2022-12-09T20:44:16.742Z,36.93
2022-12-09T20:46:52.759Z,34.73
2022-12-09T20:49:26.101Z,38.90
2022-12-09T20:51:53.522Z,31.03
2022-12-09T20:54:20.508Z,31.57
2022-12-09T20:56:47.852Z,36.90
2022-12-09T20:59:14.850Z,38.40
2022-12-09T21:01:43.554Z,30.43
2022-12-09T21:04:10.574Z,36.10
2022-12-09T21:06:40.410Z,36.10
2022-12-09T21:09:12.752Z,33.53
2022-12-09T21:11:39.976Z,42.30
2022-12-09T21:14:07.394Z,46.50
2022-12-09T21:16:39.673Z,46.60
2022-12-09T21:19:10.804Z,51.07
2022-12-09T21:21:40.788Z,25.63
2022-12-09T21:24:11.041Z,51.10
2022-12-09T21:26:39.030Z,36.93
2022-12-09T21:29:06.503Z,35.60
2022-12-09T21:31:36.199Z,25.23
2022-12-09T21:34:05.956Z,34.03
2022-12-09T21:36:36.859Z,32.30
2022-12-09T21:39:06.080Z,31.70
2022-12-09T21:41:36.396Z,42.13
2022-12-09T21:44:05.183Z,31.00
2022-12-09T21:46:35.798Z,32.40
2022-12-09T21:49:06.056Z,46.20
2022-12-09T21:51:34.759Z,31.07
2022-12-09T21:54:02.296Z,28.43
2022-12-09T21:56:32.663Z,37.73
2022-12-09T21:59:00.650Z,29.43
2022-12-09T22:01:40.726Z,30.43
2022-12-09T22:04:16.046Z,40.63
2022-12-09T22:06:47.663Z,33.17
2022-12-09T22:09:16.452Z,34.13
2022-12-09T22:11:43.791Z,31.27
2022-12-09T22:14:11.515Z,45.57
2022-12-09T22:16:45.628Z,35.67
2022-12-09T22:19:18.784Z,30.73
2022-12-09T22:21:46.762Z,43.90
2022-12-09T22:24:15.107Z,25.73
2022-12-09T22:26:45.237Z,38.53
2022-12-09T22:29:15.099Z,32.47
2022-12-09T22:31:42.845Z,31.90
2022-12-09T22:34:19.505Z,28.90
2022-12-09T22:36:49.135Z,37.43
2022-12-09T22:39:19.566Z,35.90
2022-12-09T22:41:46.579Z,40.37
2022-12-09T22:44:16.956Z,30.57
2022-12-09T22:46:44.950Z,31.77
2022-12-09T22:49:15.123Z,32.60
2022-12-09T22:51:43.417Z,32.60
2022-12-09T22:54:11.081Z,28.60
2022-12-09T22:56:40.874Z,37.83
2022-12-09T22:59:07.998Z,38.70
2022-12-09T23:01:37.430Z,32.80
2022-12-09T23:04:07.378Z,38.87
2022-12-09T23:06:36.961Z,26.70
2022-12-09T23:09:05.861Z,27.60
2022-12-09T23:11:32.877Z,30.70
2022-12-09T23:14:00.561Z,36.97
2022-12-09T23:16:28.194Z,41.73
2022-12-09T23:18:57.536Z,32.53
2022-12-09T23:21:37.679Z,28.30
2022-12-09T23:24:10.505Z,28.93
2022-12-09T23:26:40.434Z,32.07
2022-12-09T23:29:13.087Z,29.90
2022-12-09T23:31:40.939Z,35.50
2022-12-09T23:34:10.498Z,30.63
2022-12-09T23:36:40.810Z,29.37
2022-12-09T23:39:15.773Z,34.73
2022-12-09T23:41:44.701Z,35.10
2022-12-09T23:44:17.746Z,33.03
2022-12-09T23:46:45.016Z,43.80
2022-12-09T23:49:12.280Z,32.53
2022-12-09T23:51:43.711Z,34.90
2022-12-09T23:54:14.369Z,39.83
2022-12-09T23:56:44.127Z,34.47
2022-12-09T23:59:13.698Z,35.90
